Latest Coastal Weather Observations for St Lawrence

IDQ60701

Issued at 9:43 am EST Wednesday 29 May 2024 (issued every 10 minutes, with the page automatically refreshed every 10 minutes)

About coastal observations | Map of coastal stations | Coastal observations for QLD | Marine services | Other Formats
Station Details ID: 033210 Name: ST LAWRENCE Lat: -22.35 Lon: 149.52 Height: 9.19 m
Data from the previous 72 hours. | See also: Recent months at St Lawrence
Date/Time
EST
Wind Sea
Height
m
Swell Vis
km
Cloud Weather Temp
°C
Press
MSL
hPa
Rain since
9am
mm
Dir  Spd
kts
Gust
kts
Height
m
Period
s
Dir
29/09:30am ESE 7 10 - - - - - - - 22.0 1024.4 0.0
29/09:00am ESE 7 11 - - - - - - - 20.6 1024.2 0.4
29/08:30am SE 7 10 - - - - - - - 19.4 1024.0 0.4
29/08:00am SE 7 10 - - - - - - - 18.1 1023.8 0.4
29/07:30am SE 7 10 - - - - - - - 17.1 1023.5 0.4
29/07:00am SE 7 11 - - - - - - - 16.4 1023.2 0.4
29/06:30am SE 6 9 - - - - - - - 16.4 1022.9 0.4
29/06:00am SE 7 8 - - - - - - - 16.7 1022.6 0.4
29/05:30am SE 7 9 - - - - - - - 17.0 1022.2 0.4
29/05:00am SE 7 9 - - - - - - - 17.3 1021.9 0.4
29/04:30am SE 5 8 - - - - - - - 17.3 1021.8 0.4
29/04:00am SE 6 9 - - - - - - - 17.4 1022.1 0.4
29/03:30am SE 6 9 - - - - - - - 17.1 1021.9 0.4
29/03:00am SE 5 6 - - - - - - - 17.1 1021.9 0.4
29/02:30am SE 6 8 - - - - - - - 17.5 1022.1 0.4
29/02:00am SE 5 7 - - - - - - - 17.5 1022.4 0.4
29/01:30am SSE 5 7 - - - - - - - 17.2 1022.4 0.4
29/01:00am S 3 4 - - - - - - - 16.9 1022.6 0.4
29/12:30am SW 3 4 - - - - - - - 17.2 1022.8 0.4
29/12:00am SSW 1 4 - - - - - - - 17.3 1022.9 0.4
 
Date/Time
EST
Wind Sea
Height
m
Swell Vis
km
Cloud Weather Temp
°C
Press
MSL
hPa
Rain since
9am
mm
Dir  Spd
kts
Gust
kts
Height
m
Period
s
Dir
28/11:30pm CALM 0 4 - - - - - - - 17.6 1023.0 0.4
28/11:00pm CALM 0 0 - - - - - - - 17.7 1023.2 0.4
28/10:30pm SSW 2 4 - - - - - - - 17.8 1023.3 0.4
28/10:00pm SW 3 5 - - - - - - - 17.7 1023.5 0.2
28/09:30pm WSW 2 4 - - - - - - - 18.0 1023.6 0.2
28/09:00pm SW 1 4 - - - - - - - 18.1 1023.4 0.2
28/08:30pm E 5 7 - - - - - - - 18.3 1023.9 0.2
28/08:00pm SE 1 5 - - - - - - - 18.9 1023.4 0.2
28/07:30pm CALM 0 0 - - - - - - - 19.1 1023.3 0.2
28/07:00pm SE 4 6 - - - - - - - 19.1 1023.0 0.0
28/06:30pm SE 2 5 - - - - - - - 19.2 1022.8 0.0
28/06:00pm E 8 13 - - - - - - - 19.6 1022.6 0.0
28/05:30pm ESE 9 15 - - - - - - - 20.8 1022.4 0.0
28/05:00pm SE 5 8 - - - - - - - 21.7 1022.0 0.0
28/04:30pm SE 7 11 - - - - - - - 21.8 1021.7 0.0
28/04:00pm SE 7 10 - - - - - - - 22.6 1021.2 0.0
28/03:30pm ESE 9 15 - - - - - - - 21.5 1021.0 0.0
28/03:00pm E 8 13 - - - - - - - 23.4 1020.9 0.0
28/02:30pm ESE 6 11 - - - - - - - 24.3 1020.8 0.0
28/02:00pm E 8 13 - - - - - - - 24.7 1020.7 0.0
28/01:30pm E 7 12 - - - - - - - 24.4 1020.8 0.0
28/01:00pm ESE 7 13 - - - - - - - 24.6 1020.9 0.0
28/12:30pm ESE 9 13 - - - - - - - 24.2 1021.6 0.0
28/12:00pm E 9 15 - - - - - - - 24.8 1022.1 0.0
28/11:30am ESE 7 11 - - - - - - - 23.8 1022.4 0.0
28/11:00am ESE 5 8 - - - - - - - 23.2 1023.0 0.0
28/10:30am ESE 7 10 - - - - - - - 22.3 1023.4 0.0
28/10:00am SE 6 10 - - - - - - - 21.1 1023.5 0.0
28/09:30am SE 7 10 - - - - - - - 20.3 1023.5 0.0
28/09:00am SE 7 11 - - - - - - - 19.7 1023.3 0.0
28/08:30am ESE 7 10 - - - - - - - 18.6 1023.2 0.0
28/08:00am ESE 7 10 - - - - - - - 17.6 1023.0 0.0
28/07:30am ESE 6 9 - - - - - - - 17.0 1022.6 0.0
28/07:00am ESE 5 6 - - - - - - - 16.7 1022.7 0.0
28/06:30am ESE 6 8 - - - - - - - 16.6 1022.3 0.0
28/06:00am ESE 6 8 - - - - - - - 16.5 1021.7 0.0
28/05:30am ESE 5 7 - - - - - - - 16.1 1021.4 0.0
28/05:00am ESE 4 5 - - - - - - - 15.5 1021.2 0.0
28/04:30am SSW 4 5 - - - - - - - 14.9 1021.1 0.0
28/04:00am SSW 4 4 - - - - - - - 14.4 1021.0 0.0
28/03:30am ESE 3 5 - - - - - - - 15.0 1021.1 0.0
28/03:00am SE 5 6 - - - - - - - 15.8 1021.0 0.0
28/02:30am ESE 5 7 - - - - - - - 16.1 1021.2 0.0
28/02:00am ESE 6 9 - - - - - - - 16.1 1021.3 0.0
28/01:30am ESE 6 8 - - - - - - - 16.1 1021.5 0.0
28/01:00am ESE 5 6 - - - - - - - 15.4 1021.8 0.0
28/12:30am CALM 0 0 - - - - - - - 14.8 1021.9 0.0
28/12:00am CALM 0 0 - - - - - - - 15.4 1022.0 0.0
 
Date/Time
EST
Wind Sea
Height
m
Swell Vis
km
Cloud Weather Temp
°C
Press
MSL
hPa
Rain since
9am
mm
Dir  Spd
kts
Gust
kts
Height
m
Period
s
Dir
27/11:30pm CALM 0 0 - - - - - - - 15.4 1022.2 0.0
27/11:00pm SW 3 5 - - - - - - - 15.9 1022.2 0.0
27/10:30pm SSW 2 4 - - - - - - - 15.8 1022.3 0.0
27/10:00pm SSW 2 4 - - - - - - - 15.9 1022.5 0.0
27/09:30pm CALM 0 0 - - - - - - - 16.0 1022.3 0.0
27/09:00pm CALM 0 0 - - - - - - - 17.0 1022.5 0.0
27/08:30pm CALM 0 0 - - - - - - - 16.9 1022.3 0.0
27/08:00pm CALM 0 0 - - - - - - - 17.6 1022.2 0.0
27/07:30pm CALM 0 0 - - - - - - - 18.1 1021.9 0.0
27/07:00pm CALM 0 0 - - - - - - - 18.8 1021.4 0.0
27/06:30pm CALM 0 0 - - - - - - - 19.4 1021.0 0.0
27/06:00pm CALM 0 0 - - - - - - - 20.2 1020.6 0.0
27/05:30pm NE 2 3 - - - - - - - 22.2 1020.3 0.0
27/05:00pm NNE 5 7 - - - - - - - 23.4 1020.1 0.0
27/04:30pm NNE 9 11 - - - - - - - 23.8 1020.0 0.0
27/04:00pm NNE 8 12 - - - - - - - 24.4 1019.8 0.0
27/03:30pm NNE 9 12 - - - - - - - 25.2 1019.7 0.0
27/03:00pm NNE 10 13 - - - - - - - 25.1 1019.6 0.0
27/02:30pm NNE 11 14 - - - - - - - 24.8 1019.3 0.0
27/02:00pm ENE 6 11 - - - - - - - 26.3 1019.6 0.0
27/01:30pm E 5 9 - - - - - - - 26.2 1019.8 0.0
27/01:00pm NNE 4 7 - - - - - - - 25.5 1020.2 0.0
27/12:30pm NE 5 8 - - - - - - - 24.8 1020.7 0.0
27/12:00pm NE 4 7 - - - - - - - 25.4 1021.0 0.0
27/11:30am ENE 6 13 - - - - - - - 26.2 1021.4 0.0
27/11:00am ESE 6 9 - - - - - - - 23.9 1021.8 0.0
27/10:30am SE 7 11 - - - - - - - 23.0 1022.3 0.0
27/10:00am SE 7 11 - - - - - - - 22.8 1022.4 0.0
27/09:30am SE 5 9 - - - - - - - 22.0 1022.8 0.0
27/09:00am SE 7 10 - - - - - - - 20.6 1022.8 0.0
27/08:30am SE 9 13 - - - - - - - 19.6 1022.3 0.0
27/08:00am SE 7 10 - - - - - - - 18.2 1022.2 0.0
27/07:30am SE 6 10 - - - - - - - 16.4 1021.9 0.0
27/07:00am SE 7 10 - - - - - - - 16.2 1021.7 0.0
27/06:30am ESE 7 10 - - - - - - - 16.0 1021.4 0.0
27/06:00am SE 7 9 - - - - - - - 15.6 1021.0 0.0
27/05:30am SSE 5 7 - - - - - - - 14.5 1021.1 0.0
27/05:00am ESE 5 7 - - - - - - - 14.3 1020.7 0.0
27/04:30am SSW 3 5 - - - - - - - 13.5 1020.8 0.0
27/04:00am SSW 3 5 - - - - - - - 13.5 1020.8 0.0
27/03:30am SSW 3 3 - - - - - - - 13.7 1020.9 0.0
27/03:00am SSW 3 4 - - - - - - - 13.3 1020.9 0.0
27/02:30am SSW 2 3 - - - - - - - 13.8 1021.1 0.0
27/02:00am SSW 3 4 - - - - - - - 14.6 1021.5 0.0
27/01:30am SSW 4 5 - - - - - - - 14.5 1021.7 0.0
27/01:00am S 3 4 - - - - - - - 14.7 1021.8 0.0
27/12:30am CALM 0 3 - - - - - - - 15.1 1022.0 0.0
27/12:00am SSW 3 4 - - - - - - - 15.7 1022.0 0.0
 
Date/Time
EST
Wind Sea
Height
m
Swell Vis
km
Cloud Weather Temp
°C
Press
MSL
hPa
Rain since
9am
mm
Dir  Spd
kts
Gust
kts
Height
m
Period
s
Dir
26/11:30pm CALM 0 0 - - - - - - - 15.5 1022.4 0.0
26/11:00pm CALM 0 2 - - - - - - - 15.8 1022.3 0.0
26/10:30pm SSW 2 4 - - - - - - - 16.3 1022.4 0.0
26/10:00pm SW 2 5 - - - - - - - 17.1 1022.4 0.0
26/09:30pm CALM 0 0 - - - - - - - 16.7 1022.3 0.0
26/09:00pm CALM 0 0 - - - - - - - 17.1 1022.3 0.0
26/08:30pm CALM 0 0 - - - - - - - 17.9 1022.3 0.0
26/08:00pm NW 1 4 - - - - - - - 18.4 1022.5 0.0
26/07:30pm CALM 0 0 - - - - - - - 18.7 1021.7 0.0
26/07:00pm CALM 0 0 - - - - - - - 19.4 1021.1 0.0
26/06:30pm CALM 0 0 - - - - - - - 20.3 1020.5 0.0
26/06:00pm NNE 3 6 - - - - - - - 21.6 1020.0 0.0
26/05:30pm NNE 5 7 - - - - - - - 22.7 1019.8 0.0
26/05:00pm NNE 7 10 - - - - - - - 23.5 1019.4 0.0
26/04:30pm NNE 8 11 - - - - - - - 24.0 1019.2 0.0
26/04:00pm ENE 6 10 - - - - - - - 26.0 1018.8 0.0
26/03:30pm ENE 7 12 - - - - - - - 26.1 1018.6 0.0
26/03:00pm NE 6 10 - - - - - - - 26.1 1018.7 0.0
26/02:30pm NNE 9 13 - - - - - - - 26.4 1018.7 0.0
26/02:00pm ESE 5 7 - - - - - - - 26.6 1019.0 0.0
26/01:30pm NE 5 7 - - - - - - - 26.8 1019.2 0.0
26/01:00pm ENE 4 7 - - - - - - - 26.3 1019.7 0.0
26/12:30pm ESE 3 5 - - - - - - - 26.3 1020.3 0.0
26/12:00pm ESE 7 10 - - - - - - - 25.5 1021.0 0.0
26/11:30am SE 7 10 - - - - - - - 25.1 1021.5 0.0
26/11:00am SE 7 11 - - - - - - - 24.3 1022.1 0.0
26/10:30am SE 7 10 - - - - - - - 23.9 1022.6 0.0
26/10:00am SE 8 11 - - - - - - - 22.4 1022.8 0.0

Other formats

Comma delimited format used in spreadsheet applications
http://www.bom.gov.au/fwo/IDQ60701/IDQ60701.95369.axf

JavaScript Object Notation format (JSON) in row-major order
http://www.bom.gov.au/fwo/IDQ60701/IDQ60701.95369.json

Data quality

Most of these data are generated automatically and are frequently updated. Quality checks on data are not normally performed. It is possible for incorrect values to appear. Refer to information at About Latest Weather Observations and please check the disclaimer before using these data.